Time;durP1;ratioP1;P1;durP2;ratioP2;P2;SDS_P1;SDS_P2;PMS_P1;PMS_P2;Temp;Humidity;BMP_temperature;BMP_pressure;BME280_temperature;BME280_humidity;BME280_pressure;Samples;Min_cycle;Max_cycle;Signal;HPM_P1;HPM_P2
2022/08/13 00:00:10;;;;;;;4.53;1.60;;;;;;;22.66;42.80;100838.84;696531;28;939;-43
2022/08/13 00:00:34;;;;;;;3.58;1.70;;;;;;;22.68;42.44;100841.41;695847;28;1273;-44
2022/08/13 00:00:59;;;;;;;2.15;1.60;;;;;;;22.68;42.60;100839.63;695644;28;4452;-43
2022/08/13 00:01:21;;;;;;;2.63;1.60;;;;;;;22.71;42.34;100839.47;695787;28;979;-44
2022/08/13 00:01:42;;;;;;;2.67;1.60;;;;;;;22.71;42.66;100843.94;694897;28;1326;-43
2022/08/13 00:02:16;;;;;;;2.83;1.57;;;;;;;22.73;42.61;100837.56;693215;28;1075;-43
2022/08/13 00:02:39;;;;;;;4.28;1.73;;;;;;;22.70;42.64;100837.75;696416;28;1206;-45
2022/08/13 00:03:01;;;;;;;2.85;1.52;;;;;;;22.67;42.54;100842.38;695987;28;1083;-45
2022/08/13 00:03:21;;;;;;;3.00;1.40;;;;;;;22.69;42.66;100841.34;696596;28;1231;-43
2022/08/13 00:03:44;;;;;;;3.60;1.40;;;;;;;22.73;42.73;100837.56;696066;28;1213;-43
2022/08/13 00:04:06;;;;;;;2.85;1.70;;;;;;;22.74;42.69;100841.97;697769;28;4374;-43
2022/08/13 00:04:26;;;;;;;2.85;1.50;;;;;;;22.74;42.44;100835.78;698260;28;916;-44
2022/08/13 00:05:24;;;;;;;3.07;1.57;;;;;;;22.78;42.31;100840.00;699433;28;918;-44
2022/08/13 00:05:36;;;;;;;3.60;1.75;;;;;;;22.71;42.55;100839.47;695550;28;1136;-45
2022/08/13 00:05:57;;;;;;;3.67;1.50;;;;;;;22.71;42.83;100834.13;699040;28;989;-45
2022/08/13 00:07:07;;;;;;;2.85;1.50;;;;;;;22.73;42.85;100837.56;689831;28;4364;-45
2022/08/13 00:07:28;;;;;;;3.05;1.50;;;;;;;22.73;42.54;100837.56;690308;28;812;-44
2022/08/13 00:07:51;;;;;;;2.60;1.40;;;;;;;22.77;42.31;100832.94;690629;28;824;-44
2022/08/13 00:08:11;;;;;;;3.28;1.60;;;;;;;22.74;42.32;100838.44;695467;28;1918;-44
2022/08/13 00:08:33;;;;;;;2.90;1.60;;;;;;;22.71;42.56;100836.81;695127;28;1096;-44
2022/08/13 00:08:55;;;;;;;2.20;1.60;;;;;;;22.75;42.57;100830.38;696016;28;819;-43
2022/08/13 00:09:16;;;;;;;2.95;1.60;;;;;;;22.70;42.89;100832.41;696005;28;1046;-44
2022/08/13 00:09:42;;;;;;;3.40;1.60;;;;;;;22.75;42.83;100834.84;695912;28;1103;-43
2022/08/13 00:10:07;;;;;;;2.90;1.70;;;;;;;22.69;43.80;100836.00;696929;28;4421;-43
2022/08/13 00:10:28;;;;;;;3.08;1.70;;;;;;;22.70;43.79;100831.56;698680;28;1271;-44
2022/08/13 00:10:50;;;;;;;3.40;1.58;;;;;;;22.65;42.80;100837.13;698718;28;1154;-43
2022/08/13 00:12:56;;;;;;;3.63;1.50;;;;;;;22.64;44.39;100832.75;699824;28;1254;-44
2022/08/13 00:13:17;;;;;;;3.00;1.60;;;;;;;22.62;42.77;100837.28;695189;28;4768;-43
2022/08/13 00:13:37;;;;;;;3.05;1.70;;;;;;;22.60;42.81;100831.19;695769;28;1207;-44
2022/08/13 00:13:58;;;;;;;3.17;1.50;;;;;;;22.69;43.08;100837.81;695868;28;898;-43
2022/08/13 00:14:22;;;;;;;5.20;1.63;;;;;;;22.69;43.39;100835.16;695383;28;962;-44
2022/08/13 00:14:45;;;;;;;2.72;1.55;;;;;;;22.65;43.09;100837.13;696999;28;1000;-44
2022/08/13 00:15:17;;;;;;;1.90;1.50;;;;;;;22.64;43.21;100835.41;699266;28;1659;-44
2022/08/13 00:15:43;;;;;;;2.20;1.50;;;;;;;22.64;43.19;100835.41;699083;28;1103;-45
2022/08/13 00:16:04;;;;;;;3.08;1.70;;;;;;;22.63;43.64;100835.50;697935;28;4832;-43
2022/08/13 00:16:25;;;;;;;3.17;1.80;;;;;;;22.61;43.85;100835.59;695118;28;3813;-44
2022/08/13 00:16:45;;;;;;;3.27;1.70;;;;;;;22.57;43.29;100836.69;693919;28;1186;-45
2022/08/13 00:17:11;;;;;;;3.55;1.60;;;;;;;22.58;43.38;100835.72;690354;28;989;-43
2022/08/13 00:17:33;;;;;;;3.13;1.63;;;;;;;22.53;43.66;100835.13;687349;28;1650;-44
2022/08/13 00:17:54;;;;;;;4.05;1.80;;;;;;;22.49;43.70;100834.41;687467;28;1069;-44
2022/08/13 00:18:19;;;;;;;3.50;1.60;;;;;;;22.53;43.93;100835.13;687787;28;1268;-43
2022/08/13 00:18:40;;;;;;;2.35;1.50;;;;;;;22.56;43.76;100830.47;689666;28;1362;-44
2022/08/13 00:19:01;;;;;;;3.15;1.60;;;;;;;22.53;43.31;100830.63;692514;28;4502;-43
2022/08/13 00:19:26;;;;;;;3.00;1.80;;;;;;;22.56;42.96;100832.28;694651;28;1040;-43
2022/08/13 00:19:49;;;;;;;5.30;1.80;;;;;;;22.53;43.50;100830.63;695472;28;1397;-46
2022/08/13 00:20:11;;;;;;;3.78;1.50;;;;;;;22.65;43.32;100834.44;695326;28;989;-43
2022/08/13 00:20:38;;;;;;;2.90;1.50;;;;;;;22.58;43.08;100836.59;697736;28;1051;-44
2022/08/13 00:20:58;;;;;;;2.85;1.80;;;;;;;22.53;43.78;100835.97;695200;28;1131;-46
2022/08/13 00:21:21;;;;;;;3.70;1.80;;;;;;;22.49;45.64;100836.22;695770;28;915;-43
2022/08/13 00:21:41;;;;;;;3.35;1.80;;;;;;;22.48;44.85;100831.81;696224;28;738;-43
2022/08/13 00:22:02;;;;;;;2.50;1.60;;;;;;;22.50;43.98;100830.81;696170;28;4412;-45
2022/08/13 00:22:24;;;;;;;2.83;1.60;;;;;;;22.47;44.06;100835.41;697929;28;1049;-45
2022/08/13 00:22:45;;;;;;;3.17;1.60;;;;;;;22.59;43.39;100835.63;698720;28;1378;-44
2022/08/13 00:23:09;;;;;;;2.95;1.70;;;;;;;22.58;43.23;100839.25;698306;28;1043;-43
2022/08/13 00:23:29;;;;;;;5.43;1.83;;;;;;;22.56;43.62;100838.47;698208;28;872;-43
2022/08/13 00:23:52;;;;;;;5.03;1.70;;;;;;;22.59;43.81;100837.44;695390;28;1238;-45
2022/08/13 00:24:14;;;;;;;3.70;1.77;;;;;;;22.59;43.41;100830.31;696674;28;995;-43
2022/08/13 00:24:34;;;;;;;3.28;1.70;;;;;;;22.56;43.47;100835.81;697085;28;900;-44
2022/08/13 00:24:56;;;;;;;4.22;1.70;;;;;;;22.55;44.10;100838.56;693988;28;4792;-44
2022/08/13 00:25:16;;;;;;;3.20;1.65;;;;;;;22.60;43.70;100833.84;692819;28;2045;-44
2022/08/13 00:25:37;;;;;;;5.03;1.90;;;;;;;22.58;43.43;100841.03;693904;28;1131;-43
2022/08/13 00:25:58;;;;;;;3.07;1.67;;;;;;;22.53;43.98;100833.31;695961;28;1064;-44
2022/08/13 00:26:18;;;;;;;2.72;1.70;;;;;;;22.51;43.87;100837.00;693300;28;1254;-43
2022/08/13 00:26:38;;;;;;;3.33;1.70;;;;;;;22.48;44.37;100838.00;693851;28;1038;-43
2022/08/13 00:26:59;;;;;;;4.28;1.70;;;;;;;22.51;44.42;100837.00;692888;28;1250;-45
2022/08/13 00:27:22;;;;;;;4.10;1.70;;;;;;;22.50;44.35;100840.59;694739;28;1032;-45
2022/08/13 00:27:47;;;;;;;3.72;1.70;;;;;;;22.49;44.17;100837.06;694524;28;1106;-44
2022/08/13 00:28:08;;;;;;;3.67;1.63;;;;;;;22.47;45.29;100840.75;691316;28;5406;-44
2022/08/13 00:28:28;;;;;;;3.05;1.83;;;;;;;22.50;44.91;100840.59;692312;28;1986;-46
2022/08/13 00:28:53;;;;;;;3.60;1.85;;;;;;;22.47;43.82;100836.28;691440;28;1240;-43
2022/08/13 00:29:13;;;;;;;2.78;1.80;;;;;;;22.44;44.30;100842.66;691806;28;1029;-44
2022/08/13 00:29:33;;;;;;;3.43;1.80;;;;;;;22.43;44.60;100843.59;693424;28;808;-45
2022/08/13 00:29:54;;;;;;;2.03;1.55;;;;;;;22.49;44.80;100837.06;692203;28;1321;-43
2022/08/13 00:30:15;;;;;;;3.67;1.77;;;;;;;22.48;43.77;100845.16;691725;28;892;-44
2022/08/13 00:30:38;;;;;;;3.45;1.60;;;;;;;22.45;44.07;100844.34;693195;28;1002;-44
2022/08/13 00:30:59;;;;;;;3.22;1.70;;;;;;;22.46;43.82;100839.91;695217;28;5535;-43
2022/08/13 00:31:19;;;;;;;3.25;1.80;;;;;;;22.45;44.23;100841.69;697671;28;1248;-44
2022/08/13 00:31:40;;;;;;;3.77;1.70;;;;;;;22.45;44.77;100838.16;693368;28;1119;-44
2022/08/13 00:32:00;;;;;;;3.83;1.70;;;;;;;22.44;44.58;100842.66;695749;28;947;-43
2022/08/13 00:32:23;;;;;;;3.00;1.67;;;;;;;22.45;44.16;100839.03;692392;28;1096;-43
2022/08/13 00:32:45;;;;;;;3.72;1.88;;;;;;;22.43;43.97;100835.59;692581;28;922;-44
2022/08/13 00:33:12;;;;;;;2.92;1.70;;;;;;;22.44;44.02;100836.44;693695;28;1206;-43
2022/08/13 00:33:33;;;;;;;3.13;1.70;;;;;;;22.52;43.80;100838.72;694373;28;837;-45
2022/08/13 00:33:54;;;;;;;3.58;1.60;;;;;;;22.51;44.26;100834.31;695256;28;4275;-44
2022/08/13 00:34:15;;;;;;;4.20;1.60;;;;;;;22.47;44.32;100838.09;697984;28;963;-44
2022/08/13 00:34:35;;;;;;;2.63;1.65;;;;;;;22.58;44.03;100841.03;697714;28;777;-45
2022/08/13 00:35:01;;;;;;;5.30;1.67;;;;;;;22.53;44.27;100841.28;699282;28;1416;-44
2022/08/13 00:35:21;;;;;;;3.42;1.70;;;;;;;22.56;43.96;100835.81;699193;28;1196;-44
2022/08/13 00:35:42;;;;;;;3.27;1.80;;;;;;;22.55;44.38;100839.41;699024;28;1063;-43
2022/08/13 00:36:04;;;;;;;2.92;1.67;;;;;;;22.50;43.81;100835.25;698808;28;1062;-47
2022/08/13 00:36:25;;;;;;;2.75;1.60;;;;;;;22.47;43.97;100838.09;698450;28;700;-45
2022/08/13 00:36:47;;;;;;;3.50;1.80;;;;;;;22.44;44.39;100839.09;699178;28;1368;-44
2022/08/13 00:37:09;;;;;;;2.63;1.70;;;;;;;22.44;44.59;100840.00;699353;28;4346;-44
2022/08/13 00:37:29;;;;;;;5.40;1.90;;;;;;;22.50;44.41;100835.25;696370;28;1002;-44
2022/08/13 00:37:50;;;;;;;4.07;1.80;;;;;;;22.47;44.40;100835.41;697948;28;954;-45
2022/08/13 00:38:13;;;;;;;2.90;1.70;;;;;;;22.43;44.49;100838.25;696489;28;1167;-43
2022/08/13 00:38:34;;;;;;;3.00;1.60;;;;;;;22.44;44.69;100837.31;695101;28;1813;-44
2022/08/13 00:38:54;;;;;;;3.20;1.60;;;;;;;22.49;44.34;100829.09;695620;28;1251;-44
2022/08/13 00:39:14;;;;;;;2.60;1.60;;;;;;;22.43;44.66;100834.72;696012;28;1075;-45
2022/08/13 00:39:37;;;;;;;2.00;1.60;;;;;;;22.39;44.30;100834.03;695127;28;1137;-44
2022/08/13 00:39:57;;;;;;;3.42;1.60;;;;;;;22.38;44.79;100832.28;693137;28;4521;-45
2022/08/13 00:40:17;;;;;;;2.90;1.60;;;;;;;22.42;43.97;100838.34;693775;28;992;-44
2022/08/13 00:40:44;;;;;;;3.90;1.77;;;;;;;22.38;44.30;100826.97;695141;28;1015;-44
2022/08/13 00:41:07;;;;;;;4.03;1.85;;;;;;;22.38;44.13;100837.63;694362;28;884;-44
2022/08/13 00:41:39;;;;;;;3.50;1.73;;;;;;;22.35;44.93;100837.78;697849;28;1130;-44
2022/08/13 00:42:00;;;;;;;4.28;1.80;;;;;;;22.36;44.64;100833.31;696004;28;1161;-45
2022/08/13 00:42:22;;;;;;;4.63;1.77;;;;;;;22.35;44.60;100836.94;692576;28;1267;-46
2022/08/13 00:42:42;;;;;;;3.85;1.75;;;;;;;22.34;45.77;100829.88;693344;28;1135;-44
2022/08/13 00:43:04;;;;;;;3.70;1.70;;;;;;;22.38;45.25;100832.28;692258;28;4627;-44
2022/08/13 00:43:27;;;;;;;3.42;1.75;;;;;;;22.34;45.29;100830.72;693573;28;1458;-45
2022/08/13 00:43:47;;;;;;;4.35;1.88;;;;;;;22.30;45.75;100829.13;693792;28;961;-45
2022/08/13 00:44:10;;;;;;;2.80;1.70;;;;;;;22.29;45.51;100832.72;693592;28;913;-45
2022/08/13 00:44:31;;;;;;;2.65;1.65;;;;;;;22.33;44.96;100828.97;695972;28;1276;-43
2022/08/13 00:44:51;;;;;;;4.07;1.77;;;;;;;22.28;45.19;100823.88;696197;28;1034;-44
2022/08/13 00:45:12;;;;;;;4.50;1.73;;;;;;;22.30;45.47;100828.28;696092;28;1102;-44
2022/08/13 00:45:32;;;;;;;4.80;1.77;;;;;;;22.29;46.13;100827.41;695887;28;907;-44
2022/08/13 00:45:54;;;;;;;4.65;1.80;;;;;;;22.34;45.32;100824.56;696914;28;4567;-44
2022/08/13 00:46:14;;;;;;;4.10;1.80;;;;;;;22.33;44.86;100823.63;699409;28;980;-45
2022/08/13 00:46:39;;;;;;;3.43;1.80;;;;;;;22.32;45.68;100829.94;700197;28;2015;-45
2022/08/13 00:48:58;;;;;;;4.50;1.90;;;;;;;22.22;45.48;100826.00;700467;28;4323;-44
2022/08/13 00:49:18;;;;;;;3.33;1.70;;;;;;;22.23;45.71;100831.25;699493;28;1305;-43
2022/08/13 00:49:38;;;;;;;3.07;1.80;;;;;;;22.19;46.22;100818.16;699745;28;1083;-45
2022/08/13 00:50:00;;;;;;;3.42;1.70;;;;;;;22.15;46.59;100812.13;700360;28;978;-45
2022/08/13 00:50:21;;;;;;;3.10;1.70;;;;;;;22.12;46.11;100820.28;700857;28;1261;-43
2022/08/13 00:50:42;;;;;;;3.35;1.80;;;;;;;22.14;45.17;100821.09;697180;28;971;-44
2022/08/13 00:51:05;;;;;;;3.55;1.80;;;;;;;22.10;45.76;100828.34;692042;28;1086;-43
2022/08/13 00:51:26;;;;;;;3.97;1.80;;;;;;;22.09;45.70;100820.44;693039;28;1964;-44
2022/08/13 00:51:47;;;;;;;3.90;1.90;;;;;;;22.08;45.40;100824.91;694195;28;954;-44
2022/08/13 00:52:10;;;;;;;4.20;1.80;;;;;;;22.10;45.50;100824.84;692968;28;4478;-45
2022/08/13 00:52:36;;;;;;;3.92;1.77;;;;;;;22.13;45.57;100818.50;694311;28;1438;-45
2022/08/13 00:52:57;;;;;;;4.80;1.92;;;;;;;22.15;45.05;100814.78;696789;28;1080;-44
2022/08/13 00:53:19;;;;;;;4.20;1.70;;;;;;;22.15;45.83;100820.13;695988;28;1062;-43
2022/08/13 00:53:40;;;;;;;4.47;1.80;;;;;;;22.20;45.61;100815.44;696250;28;839;-44
2022/08/13 00:54:05;;;;;;;3.50;1.80;;;;;;;22.17;45.85;100822.72;696068;28;1434;-45
2022/08/13 00:54:25;;;;;;;4.05;2.10;;;;;;;22.17;46.27;100815.59;695023;28;890;-44
2022/08/13 00:54:49;;;;;;;3.10;1.80;;;;;;;22.15;46.16;100814.78;696769;28;979;-43
2022/08/13 00:55:16;;;;;;;2.60;1.83;;;;;;;22.20;45.62;100819.91;697386;28;4410;-44
2022/08/13 00:55:36;;;;;;;4.63;1.80;;;;;;;22.18;45.76;100819.09;695474;28;1073;-45
2022/08/13 00:55:58;;;;;;;3.73;1.90;;;;;;;22.28;45.40;100820.38;696466;28;871;-43
2022/08/13 00:56:22;;;;;;;3.35;1.90;;;;;;;22.22;45.96;100818.88;692674;28;1054;-45
2022/08/13 00:56:42;;;;;;;3.92;1.92;;;;;;;22.27;45.65;100815.97;694173;28;1071;-44
2022/08/13 00:57:07;;;;;;;4.30;1.90;;;;;;;22.21;45.31;100810.94;693167;28;1083;-43
2022/08/13 00:57:29;;;;;;;3.40;1.80;;;;;;;22.22;45.41;100815.34;694915;28;1290;-45
2022/08/13 00:57:50;;;;;;;3.15;1.75;;;;;;;22.18;45.17;100817.31;695838;28;911;-45
2022/08/13 00:58:16;;;;;;;3.40;1.83;;;;;;;22.23;45.03;100817.94;697499;28;4276;-43
2022/08/13 00:58:38;;;;;;;4.25;2.20;;;;;;;22.22;45.58;100815.34;699196;28;873;-46
2022/08/13 00:59:07;;;;;;;3.28;1.80;;;;;;;22.23;45.27;100822.41;695673;28;1228;-45
2022/08/13 00:59:28;;;;;;;3.83;2.28;;;;;;;22.29;45.16;100819.41;696061;28;923;-43
2022/08/13 00:59:51;;;;;;;4.50;2.03;;;;;;;22.23;46.33;100811.75;695565;28;1834;-44
2022/08/13 01:00:19;;;;;;;3.65;1.73;;;;;;;22.26;45.49;100811.59;695669;28;1126;-44
2022/08/13 01:00:40;;;;;;;4.85;1.85;;;;;;;22.19;45.73;100815.50;693242;28;1364;-43
2022/08/13 01:01:02;;;;;;;4.00;1.90;;;;;;;22.24;45.37;100818.81;694233;28;4287;-44
2022/08/13 01:01:24;;;;;;;4.05;1.90;;;;;;;22.27;45.22;100818.66;694654;28;907;-43
2022/08/13 01:01:46;;;;;;;3.65;1.90;;;;;;;22.30;45.28;100818.47;695464;28;1169;-44
2022/08/13 01:02:06;;;;;;;2.95;1.90;;;;;;;22.29;45.67;100819.41;694756;28;1057;-44
2022/08/13 01:02:28;;;;;;;5.03;2.05;;;;;;;22.23;46.60;100814.41;697140;28;955;-44
2022/08/13 01:02:50;;;;;;;4.43;1.90;;;;;;;22.25;45.98;100815.19;699231;28;942;-46
2022/08/13 01:03:12;;;;;;;3.88;1.90;;;;;;;22.21;45.86;100824.25;698008;28;1048;-44
2022/08/13 01:03:36;;;;;;;3.50;1.80;;;;;;;22.18;45.39;100820.00;698651;28;1114;-46
2022/08/13 01:03:57;;;;;;;2.88;1.85;;;;;;;22.17;45.69;100820.06;695234;28;4316;-43
2022/08/13 01:04:20;;;;;;;3.72;1.80;;;;;;;22.19;45.46;100819.03;694993;28;1066;-44
2022/08/13 01:04:42;;;;;;;3.20;1.90;;;;;;;22.18;45.58;100817.31;695675;28;725;-43
2022/08/13 01:05:02;;;;;;;3.95;2.00;;;;;;;22.18;45.55;100813.78;696251;28;1210;-44
2022/08/13 01:05:25;;;;;;;4.90;2.00;;;;;;;22.15;45.31;100814.78;696408;28;1134;-44
2022/08/13 01:05:47;;;;;;;2.67;1.80;;;;;;;22.14;45.80;100817.53;697777;28;927;-43
2022/08/13 01:06:08;;;;;;;4.38;1.70;;;;;;;22.13;45.98;100822.00;698461;28;939;-44
2022/08/13 01:06:30;;;;;;;4.28;1.90;;;;;;;22.14;46.04;100822.84;698868;28;1347;-45
2022/08/13 01:06:51;;;;;;;4.13;1.90;;;;;;;22.12;46.47;100820.28;698778;28;1345;-44
2022/08/13 01:07:14;;;;;;;4.20;1.90;;;;;;;22.15;46.44;100820.13;698051;28;4250;-44
2022/08/13 01:07:37;;;;;;;4.28;1.80;;;;;;;22.13;46.18;100815.84;698861;28;947;-43
2022/08/13 01:07:58;;;;;;;3.30;1.90;;;;;;;22.14;46.03;100822.84;696041;28;1197;-45
2022/08/13 01:08:19;;;;;;;4.37;1.90;;;;;;;22.16;46.17;100823.66;695512;28;1985;-45
2022/08/13 01:08:40;;;;;;;3.60;1.80;;;;;;;22.15;46.29;100824.59;695636;28;1621;-44
2022/08/13 01:09:02;;;;;;;3.03;1.80;;;;;;;22.11;45.95;100823.88;696159;28;812;-45
2022/08/13 01:09:29;;;;;;;3.40;1.98;;;;;;;22.15;46.46;100824.59;696005;28;888;-44
2022/08/13 01:09:49;;;;;;;3.13;1.95;;;;;;;22.11;46.74;100822.09;698139;28;1284;-43
2022/08/13 01:10:11;;;;;;;2.87;2.00;;;;;;;22.05;47.39;100819.72;698261;28;4223;-44
2022/08/13 01:10:33;;;;;;;2.85;1.90;;;;;;;22.11;47.49;100819.44;699324;28;986;-43
2022/08/13 01:10:56;;;;;;;4.30;1.80;;;;;;;22.09;47.06;100815.97;699288;28;985;-44
2022/08/13 01:11:21;;;;;;;3.83;1.80;;;;;;;22.08;46.92;100818.72;696168;28;1222;-43
2022/08/13 01:11:43;;;;;;;2.83;1.95;;;;;;;22.05;46.29;100818.88;695568;28;1040;-44
2022/08/13 01:12:04;;;;;;;3.92;1.92;;;;;;;22.08;47.13;100818.72;696350;28;955;-43
2022/08/13 01:12:25;;;;;;;3.15;1.98;;;;;;;22.07;46.55;100817.88;695584;28;959;-44
2022/08/13 01:12:50;;;;;;;2.80;1.80;;;;;;;22.04;46.59;100817.16;691607;28;4003;-43
2022/08/13 01:13:13;;;;;;;2.40;1.83;;;;;;;22.05;46.72;100825.06;691199;28;4364;-43
2022/08/13 01:13:35;;;;;;;3.30;1.70;;;;;;;22.06;46.39;100818.78;693095;28;1027;-44
2022/08/13 01:13:58;;;;;;;3.65;1.85;;;;;;;22.04;46.69;100822.47;693291;28;872;-44
2022/08/13 01:14:19;;;;;;;3.22;1.90;;;;;;;22.02;47.07;100827.03;692440;28;1265;-43
2022/08/13 01:14:41;;;;;;;3.28;1.70;;;;;;;22.04;46.55;100820.69;694747;28;836;-44
2022/08/13 01:15:03;;;;;;;3.55;1.90;;;;;;;21.99;46.85;100816.50;697307;28;1172;-45
2022/08/13 01:15:24;;;;;;;3.08;1.90;;;;;;;22.00;46.72;100821.78;697767;28;1005;-43
2022/08/13 01:15:45;;;;;;;2.97;1.80;;;;;;;22.03;46.82;100818.97;696115;28;1087;-43
2022/08/13 01:16:13;;;;;;;2.92;1.80;;;;;;;22.03;46.99;100824.28;695169;28;4512;-43
2022/08/13 01:16:36;;;;;;;2.42;1.70;;;;;;;22.07;46.66;100822.31;693177;28;1439;-45
2022/08/13 01:17:01;;;;;;;3.92;1.90;;;;;;;22.07;46.23;100824.97;690806;28;1234;-44
2022/08/13 01:17:23;;;;;;;3.78;1.92;;;;;;;22.03;46.18;100828.72;690397;28;1201;-45
2022/08/13 01:17:47;;;;;;;2.78;1.80;;;;;;;22.00;46.43;100821.78;692436;28;1003;-46
2022/08/13 01:18:15;;;;;;;5.35;1.92;;;;;;;21.98;46.66;100820.97;692969;28;1009;-44
2022/08/13 01:18:36;;;;;;;3.78;1.95;;;;;;;21.96;47.65;100822.88;695763;28;983;-44
2022/08/13 01:18:56;;;;;;;3.63;1.93;;;;;;;22.01;47.19;100819.97;699630;28;4342;-44
2022/08/13 01:19:17;;;;;;;2.50;1.80;;;;;;;22.06;46.56;100823.28;699997;28;1068;-44
2022/08/13 01:19:39;;;;;;;7.03;2.17;;;;;;;22.04;46.33;100815.38;699702;28;1204;-44
2022/08/13 01:20:00;;;;;;;6.60;2.22;;;;;;;21.98;47.16;100818.31;699942;28;951;-44
2022/08/13 01:20:22;;;;;;;3.20;1.85;;;;;;;21.97;46.94;100821.06;699614;28;1054;-43
2022/08/13 01:20:46;;;;;;;4.57;2.00;;;;;;;21.95;46.83;100818.47;700187;28;994;-43
2022/08/13 01:21:16;;;;;;;3.75;1.80;;;;;;;21.93;46.98;100815.00;699579;28;1232;-44
2022/08/13 01:21:42;;;;;;;3.30;1.98;;;;;;;21.92;46.47;100818.63;696736;28;987;-44
2022/08/13 01:22:03;;;;;;;2.60;1.95;;;;;;;21.92;46.31;100823.97;695059;28;4451;-44
2022/08/13 01:22:25;;;;;;;2.97;2.00;;;;;;;21.93;46.44;100828.31;692797;28;1145;-43
2022/08/13 01:22:49;;;;;;;3.92;1.92;;;;;;;21.92;46.77;100819.50;692491;28;1571;-43
2022/08/13 01:23:10;;;;;;;3.15;2.00;;;;;;;21.98;46.49;100818.31;693222;28;932;-44
2022/08/13 01:23:31;;;;;;;3.67;1.90;;;;;;;22.03;46.89;100820.75;696210;28;967;-45
2022/08/13 01:23:53;;;;;;;4.17;1.90;;;;;;;22.02;46.41;100821.69;692404;28;1109;-44
2022/08/13 01:24:14;;;;;;;3.72;1.95;;;;;;;22.07;46.35;100822.31;692277;28;1073;-44
2022/08/13 01:24:34;;;;;;;2.30;1.80;;;;;;;22.05;46.45;100825.06;693847;28;808;-45
2022/08/13 01:24:55;;;;;;;3.40;1.90;;;;;;;22.06;46.09;100825.94;691722;28;4966;-44
2022/08/13 01:25:16;;;;;;;3.28;2.00;;;;;;;22.02;47.28;100827.88;691938;28;1171;-43
2022/08/13 01:25:37;;;;;;;2.92;1.80;;;;;;;22.02;46.77;100825.22;693325;28;1209;-43
2022/08/13 01:25:59;;;;;;;3.45;1.98;;;;;;;22.00;46.62;100824.44;693559;28;1081;-44
2022/08/13 01:26:21;;;;;;;3.65;2.00;;;;;;;22.04;46.40;100826.00;696250;28;978;-44
2022/08/13 01:26:41;;;;;;;4.15;1.80;;;;;;;22.05;46.52;100829.53;695743;28;908;-43
2022/08/13 01:27:02;;;;;;;4.10;1.90;;;;;;;22.02;46.58;100827.88;696002;28;998;-43
2022/08/13 01:27:25;;;;;;;4.68;1.92;;;;;;;21.99;46.72;100828.03;696308;28;1305;-43
2022/08/13 01:27:45;;;;;;;3.35;1.80;;;;;;;22.03;46.61;100824.28;696262;28;887;-44
2022/08/13 01:28:08;;;;;;;2.30;1.70;;;;;;;22.01;46.69;100826.13;696099;28;4394;-43
2022/08/13 01:28:28;;;;;;;3.55;2.03;;;;;;;21.98;46.36;100828.97;695559;28;1914;-44
2022/08/13 01:28:51;;;;;;;3.45;1.90;;;;;;;21.96;46.88;100822.88;695883;28;1513;-43
2022/08/13 01:29:11;;;;;;;3.92;1.95;;;;;;;21.98;46.71;100820.97;694996;28;1340;-43
2022/08/13 01:29:35;;;;;;;3.50;1.90;;;;;;;21.98;46.58;100825.44;696590;28;855;-44
2022/08/13 01:29:56;;;;;;;2.72;1.77;;;;;;;21.92;47.58;100823.97;690417;28;1079;-44
2022/08/13 01:30:21;;;;;;;3.08;1.92;;;;;;;21.97;47.16;100827.22;690564;28;1022;-43
2022/08/13 01:30:46;;;;;;;2.70;1.73;;;;;;;21.95;46.79;100821.13;688802;28;902;-44
2022/08/13 01:31:07;;;;;;;4.07;1.95;;;;;;;21.93;47.59;100820.34;688631;28;4466;-43
2022/08/13 01:31:27;;;;;;;4.28;2.00;;;;;;;21.95;47.01;100815.81;688901;28;907;-44
2022/08/13 01:31:51;;;;;;;4.00;1.90;;;;;;;21.94;47.13;100827.38;692261;28;907;-44
2022/08/13 01:32:15;;;;;;;4.50;2.10;;;;;;;21.92;46.91;100829.28;688925;28;1081;-46
2022/08/13 01:32:37;;;;;;;4.53;1.90;;;;;;;21.92;47.03;100823.97;690203;28;1071;-44
2022/08/13 01:33:01;;;;;;;4.95;2.10;;;;;;;21.89;47.41;100822.31;691821;28;869;-44
2022/08/13 01:33:23;;;;;;;4.00;2.08;;;;;;;21.86;47.37;100818.94;693581;28;1038;-44
2022/08/13 01:33:45;;;;;;;5.10;2.00;;;;;;;21.83;47.42;100821.75;693984;28;780;-46
2022/08/13 01:34:06;;;;;;;3.63;1.73;;;;;;;21.82;48.11;100817.34;690494;28;4278;-44
2022/08/13 01:34:31;;;;;;;3.90;2.00;;;;;;;21.84;47.53;100823.47;690868;28;935;-45
2022/08/13 01:34:51;;;;;;;2.60;1.90;;;;;;;21.91;47.91;100827.56;690289;28;1030;-44
2022/08/13 01:35:14;;;;;;;3.20;1.98;;;;;;;21.88;47.53;100822.38;689272;28;2147;-44
2022/08/13 01:35:35;;;;;;;3.17;1.85;;;;;;;21.87;47.52;100820.66;689942;28;800;-45
2022/08/13 01:35:58;;;;;;;2.67;2.00;;;;;;;21.86;47.49;100824.25;692332;28;848;-45
2022/08/13 01:36:20;;;;;;;3.00;2.00;;;;;;;21.87;47.53;100821.50;694705;28;1176;-44
2022/08/13 01:36:43;;;;;;;2.97;1.90;;;;;;;21.86;47.74;100824.25;694998;28;1021;-44
2022/08/13 01:37:03;;;;;;;5.68;1.98;;;;;;;21.87;47.41;100818.84;693726;28;4474;-43
2022/08/13 01:37:23;;;;;;;4.15;1.90;;;;;;;21.84;48.54;100816.34;695763;28;764;-43
2022/08/13 01:37:51;;;;;;;3.40;1.90;;;;;;;21.90;47.30;100825.81;696506;28;923;-43
2022/08/13 01:38:14;;;;;;;3.00;1.90;;;;;;;21.92;47.54;100823.97;695565;28;923;-45
2022/08/13 01:38:36;;;;;;;3.70;2.00;;;;;;;21.85;48.94;100823.41;696109;28;1529;-43
2022/08/13 01:38:57;;;;;;;4.22;2.00;;;;;;;21.91;47.11;100822.22;696366;28;5175;-44
2022/08/13 01:39:18;;;;;;;4.43;1.92;;;;;;;21.91;47.17;100830.22;695377;28;1279;-43
2022/08/13 01:39:38;;;;;;;4.27;2.03;;;;;;;21.88;48.50;100822.38;696464;28;785;-44
2022/08/13 01:39:59;;;;;;;4.25;1.95;;;;;;;21.81;48.16;100826.25;695714;28;4473;-44
2022/08/13 01:40:20;;;;;;;4.32;2.10;;;;;;;21.77;47.29;100829.09;691937;28;1074;-44
2022/08/13 01:40:41;;;;;;;3.30;1.92;;;;;;;21.75;47.85;100825.66;693939;28;1021;-43
2022/08/13 01:41:04;;;;;;;4.50;2.10;;;;;;;21.71;47.30;100826.75;695978;28;793;-43
2022/08/13 01:41:26;;;;;;;4.32;2.13;;;;;;;21.72;47.40;100823.16;695662;28;959;-43
2022/08/13 01:41:47;;;;;;;4.75;2.10;;;;;;;21.70;48.87;100818.84;694521;28;1430;-44
2022/08/13 01:42:19;;;;;;;5.15;2.10;;;;;;;21.70;48.68;100821.50;696197;28;1180;-43
2022/08/13 01:42:43;;;;;;;3.58;2.05;;;;;;;21.70;48.00;100818.84;698705;28;982;-43
2022/08/13 01:43:05;;;;;;;3.78;2.10;;;;;;;21.74;48.04;100823.06;698150;28;4373;-43
2022/08/13 01:43:29;;;;;;;3.00;1.88;;;;;;;21.75;47.98;100825.66;698558;28;1024;-43
2022/08/13 01:43:50;;;;;;;4.47;1.95;;;;;;;21.71;49.23;100820.53;695641;28;1128;-43
2022/08/13 01:44:11;;;;;;;4.43;2.00;;;;;;;21.72;47.89;100828.47;696011;28;1164;-43
2022/08/13 01:44:33;;;;;;;3.42;1.88;;;;;;;21.72;49.25;100824.94;693688;28;1332;-44
2022/08/13 01:44:54;;;;;;;3.22;2.10;;;;;;;21.66;49.40;100820.78;690957;28;943;-43
2022/08/13 01:45:14;;;;;;;4.25;2.10;;;;;;;21.69;49.07;100828.59;690548;28;962;-44
2022/08/13 01:45:34;;;;;;;5.17;2.00;;;;;;;21.67;47.79;100832.25;690858;28;829;-44
2022/08/13 01:45:59;;;;;;;3.92;2.10;;;;;;;21.66;47.89;100823.44;690425;28;4464;-43
2022/08/13 01:46:20;;;;;;;2.90;2.00;;;;;;;21.69;47.79;100828.59;693685;28;1079;-43
2022/08/13 01:50:48;;;;;;;3.40;2.10;;;;;;;21.63;48.44;100828.03;696382;28;1126;-44
2022/08/13 01:51:13;;;;;;;3.88;2.10;;;;;;;21.65;48.16;100827.03;692633;28;1250;-43
2022/08/13 01:51:35;;;;;;;3.05;2.17;;;;;;;21.64;48.59;100822.66;696042;28;1328;-44
2022/08/13 01:51:56;;;;;;;3.28;2.17;;;;;;;21.63;48.99;100828.91;695047;28;4383;-43
2022/08/13 01:52:16;;;;;;;3.67;2.22;;;;;;;21.60;48.30;100823.75;695885;28;1187;-44
2022/08/13 01:52:41;;;;;;;3.10;2.10;;;;;;;21.64;48.35;100821.78;695848;28;1364;-47
2022/08/13 01:53:11;;;;;;;2.95;2.00;;;;;;;21.58;48.72;100821.13;694609;28;1147;-45
2022/08/13 01:53:31;;;;;;;3.55;2.00;;;;;;;21.63;48.90;100822.72;695148;28;1212;-44
2022/08/13 01:53:58;;;;;;;3.08;2.00;;;;;;;21.64;47.98;100822.66;694433;28;1271;-43
2022/08/13 01:54:20;;;;;;;3.08;2.08;;;;;;;21.61;48.65;100820.13;692535;28;2301;-43
2022/08/13 01:54:41;;;;;;;3.10;2.10;;;;;;;21.60;49.29;100823.75;692997;28;1045;-43
2022/08/13 01:55:04;;;;;;;2.95;2.13;;;;;;;21.59;49.91;100820.19;692897;28;4633;-44
2022/08/13 01:55:24;;;;;;;4.30;2.60;;;;;;;21.58;49.96;100825.59;693662;28;1229;-43